Time;durP1;ratioP1;P1;durP2;ratioP2;P2;SDS_P1;SDS_P2;PMS_P1;PMS_P2;Temp;Humidity;BMP_temperature;BMP_pressure;BME280_temperature;BME280_humidity;BME280_pressure;Samples;Min_cycle;Max_cycle;Signal;HPM_P1;HPM_P2
2023/11/07 00:01:27;;;;;;;1.50;1.40;;;;;;;-147.86;100.00;48372.92;105653;1258;72557;-51
2023/11/07 00:03:55;;;;;;;4.10;1.20;;;;;;;-147.86;100.00;48374.10;105701;1259;61799;-46
2023/11/07 00:06:23;;;;;;;3.40;1.30;;;;;;;-147.86;100.00;48365.47;105486;1256;60537;-51
2023/11/07 00:08:50;;;;;;;1.60;1.30;;;;;;;-147.86;100.00;48373.31;105519;1254;73797;-51
2023/11/07 00:11:18;;;;;;;3.70;1.10;;;;;;;-147.86;100.00;48384.68;105670;1259;64550;-49
2023/11/07 00:13:47;;;;;;;1.70;1.50;;;;;;;-147.86;100.00;48391.74;105671;1254;72703;-51
2023/11/07 00:16:15;;;;;;;2.00;1.00;;;;;;;-147.86;100.00;48398.41;105636;1258;61926;-49
2023/11/07 00:18:42;;;;;;;1.80;1.30;;;;;;;-147.86;100.00;48382.33;105665;1254;60479;-50
2023/11/07 00:21:09;;;;;;;1.80;1.00;;;;;;;-147.86;100.00;48398.01;105673;1259;73930;-47
2023/11/07 00:23:37;;;;;;;1.20;1.10;;;;;;;-147.86;100.00;48392.52;105560;1259;65465;-51
2023/11/07 00:26:05;;;;;;;2.90;1.10;;;;;;;-147.86;100.00;48394.88;105624;1254;72600;-46
2023/11/07 00:28:32;;;;;;;2.00;1.00;;;;;;;-147.86;100.00;48409.38;105620;1258;61032;-49
2023/11/07 00:31:00;;;;;;;1.70;1.20;;;;;;;-147.86;100.00;48416.84;105638;1254;60422;-49
2023/11/07 00:33:27;;;;;;;2.20;0.90;;;;;;;-147.86;100.00;48408.99;105657;1255;73766;-46
2023/11/07 00:35:54;;;;;;;4.20;1.20;;;;;;;-147.86;100.00;48426.64;105676;1260;64639;-50
2023/11/07 00:38:22;;;;;;;1.30;1.20;;;;;;;-147.86;100.00;48423.11;105588;1254;72605;-49
2023/11/07 00:40:49;;;;;;;1.80;1.50;;;;;;;-147.86;100.00;48423.50;105586;1254;61926;-50
2023/11/07 00:43:17;;;;;;;2.10;1.20;;;;;;;-147.86;100.00;48420.36;105589;1254;60569;-48
2023/11/07 00:45:44;;;;;;;3.70;1.50;;;;;;;-147.86;100.00;48413.30;105627;1258;73781;-48
2023/11/07 00:48:11;;;;;;;3.30;1.30;;;;;;;-147.86;100.00;48415.66;105666;1260;65417;-48
2023/11/07 00:50:38;;;;;;;5.00;1.80;;;;;;;-147.86;100.00;48425.46;105606;1259;72691;-48
2023/11/07 00:53:05;;;;;;;1.90;1.00;;;;;;;-147.86;100.00;48414.48;105635;1257;61614;-49
2023/11/07 00:55:32;;;;;;;3.70;1.40;;;;;;;-147.86;100.00;48428.60;105639;1256;60536;-50
2023/11/07 00:57:59;;;;;;;2.00;1.40;;;;;;;-147.86;100.00;48424.29;105594;1258;73905;-47
2023/11/07 01:00:27;;;;;;;2.00;1.40;;;;;;;-147.86;100.00;48412.52;105658;1258;65410;-46
2023/11/07 01:02:54;;;;;;;2.50;1.10;;;;;;;-147.86;100.00;48438.01;105627;1257;72490;-51
2023/11/07 01:05:21;;;;;;;2.70;1.50;;;;;;;-147.86;100.00;48430.95;105628;1256;62727;-47
2023/11/07 01:07:48;;;;;;;1.80;1.50;;;;;;;-147.86;100.00;48448.59;105641;1258;60418;-48
2023/11/07 01:10:15;;;;;;;1.30;1.20;;;;;;;-147.86;100.00;48456.82;105630;1255;73902;-46
2023/11/07 01:12:42;;;;;;;1.50;1.20;;;;;;;-147.86;100.00;48447.41;105659;1260;65405;-45
2023/11/07 01:15:09;;;;;;;1.50;1.10;;;;;;;-147.86;100.00;48448.98;105665;1257;72609;-45
2023/11/07 01:17:36;;;;;;;5.30;1.20;;;;;;;-147.86;100.00;48450.16;105594;1259;61859;-50
2023/11/07 01:20:06;;;;;;;2.00;1.40;;;;;;;-147.86;100.00;48452.13;105647;1257;60739;-48
2023/11/07 01:22:33;;;;;;;4.00;1.40;;;;;;;-147.86;100.00;48458.79;105689;1257;72327;-47
2023/11/07 01:25:00;;;;;;;5.10;1.80;;;;;;;-147.86;100.00;48459.96;105637;1259;65511;-45
2023/11/07 01:27:27;;;;;;;1.80;1.40;;;;;;;-147.86;100.00;48451.73;105875;1254;72588;-47
2023/11/07 01:29:54;;;;;;;2.60;1.20;;;;;;;-147.86;100.00;48454.87;105873;1254;61189;-48
2023/11/07 01:32:21;;;;;;;1.40;1.20;;;;;;;-147.86;100.00;48451.73;105692;1254;307745;-48
2023/11/07 01:36:48;;;;;;;2.40;1.40;;;;;;;-147.86;100.00;48441.93;102438;1293;602651;-47
2023/11/07 01:39:16;;;;;;;4.90;1.20;;;;;;;-147.86;100.00;48468.59;105063;1269;60363;-52
2023/11/07 01:41:42;;;;;;;2.50;1.20;;;;;;;-147.86;100.00;48480.35;104933;1267;60321;-50
2023/11/07 01:44:10;;;;;;;2.40;1.30;;;;;;;-147.86;100.00;48447.42;104743;1269;72246;-50
2023/11/07 01:46:37;;;;;;;11.40;1.60;;;;;;;-147.86;100.00;48455.26;105010;1269;64867;-49
2023/11/07 01:49:04;;;;;;;1.70;1.20;;;;;;;-147.86;100.00;48434.09;104759;1272;199256;-49
2023/11/07 01:51:31;;;;;;;3.70;1.40;;;;;;;-147.86;100.00;48434.48;104944;1269;60411;-49
2023/11/07 01:53:58;;;;;;;1.50;1.20;;;;;;;-147.86;100.00;48430.16;105248;1264;60303;-50
2023/11/07 01:56:26;;;;;;;4.70;1.10;;;;;;;-147.86;100.00;48419.19;104915;1264;72092;-47
2023/11/07 01:58:54;;;;;;;1.50;1.20;;;;;;;-147.86;100.00;48426.24;104985;1269;64665;-49
2023/11/07 02:01:21;;;;;;;1.90;1.30;;;;;;;-147.86;100.00;48419.97;104861;1264;72660;-51
2023/11/07 02:03:48;;;;;;;2.60;1.00;;;;;;;-147.86;100.00;48421.54;105237;1269;60356;-50
2023/11/07 02:06:15;;;;;;;2.90;1.10;;;;;;;-147.86;100.00;48428.21;105139;1263;60300;-48
2023/11/07 02:08:42;;;;;;;5.10;0.90;;;;;;;-147.86;100.00;48415.66;105038;1263;73049;-47
2023/11/07 02:11:10;;;;;;;2.60;1.10;;;;;;;-147.86;100.00;48408.99;104981;1269;64738;-50
2023/11/07 02:13:37;;;;;;;3.40;1.00;;;;;;;-147.86;100.00;48418.01;105214;1268;72457;-48
2023/11/07 02:16:06;;;;;;;1.40;1.30;;;;;;;-147.86;100.00;48417.62;104940;1269;59539;-49
2023/11/07 02:18:32;;;;;;;7.10;1.20;;;;;;;-147.86;100.00;48409.39;105223;1264;60394;-47
2023/11/07 02:20:59;;;;;;;2.40;1.10;;;;;;;-147.86;100.00;48405.07;105233;1265;72899;-48
2023/11/07 02:23:32;;;;;;;1.20;1.00;;;;;;;-147.86;100.00;48412.91;105327;1268;64645;-46
2023/11/07 02:25:59;;;;;;;7.50;1.50;;;;;;;-147.86;100.00;48412.13;105228;1263;71469;-48
2023/11/07 02:28:26;;;;;;;7.00;1.80;;;;;;;-147.86;100.00;48410.95;105265;1269;60271;-47
2023/11/07 02:30:53;;;;;;;1.40;1.10;;;;;;;-147.86;100.00;48408.21;105250;1263;60292;-45
2023/11/07 02:33:20;;;;;;;3.10;0.90;;;;;;;-147.86;100.00;48396.84;105174;1269;72900;-49
2023/11/07 02:35:47;;;;;;;1.30;1.20;;;;;;;-147.86;100.00;48402.72;105263;1267;65427;-45
2023/11/07 02:38:16;;;;;;;3.00;0.90;;;;;;;-147.86;100.00;48390.96;105186;1269;71565;-47
2023/11/07 02:40:43;;;;;;;2.20;1.00;;;;;;;-147.86;100.00;48392.52;105192;1269;60299;-47
2023/11/07 02:43:10;;;;;;;5.00;1.20;;;;;;;-147.86;100.00;48388.21;105134;1264;60221;-51
2023/11/07 02:45:37;;;;;;;5.20;1.20;;;;;;;-147.86;100.00;48382.72;104927;1269;72981;-47
2023/11/07 02:48:05;;;;;;;1.80;1.10;;;;;;;-147.86;100.00;48386.64;105575;1262;65443;-47
2023/11/07 02:50:32;;;;;;;1.00;0.90;;;;;;;-147.86;100.00;48385.46;105666;1260;72716;-50
2023/11/07 02:52:59;;;;;;;1.30;1.00;;;;;;;-147.86;100.00;48373.70;105548;1263;60201;-48
2023/11/07 02:55:26;;;;;;;3.70;1.50;;;;;;;-147.86;100.00;48377.63;105625;1257;60250;-46
2023/11/07 02:57:53;;;;;;;2.90;0.90;;;;;;;-147.86;100.00;48359.20;105591;1257;72974;-47
2023/11/07 03:00:20;;;;;;;3.70;1.10;;;;;;;-147.86;100.00;48373.31;105640;1260;65422;-50
2023/11/07 03:02:48;;;;;;;1.30;0.90;;;;;;;-147.86;100.00;48375.66;105670;1257;72789;-47
2023/11/07 03:05:15;;;;;;;3.00;0.90;;;;;;;-147.86;100.00;48359.20;105631;1260;60254;-46
2023/11/07 03:07:42;;;;;;;3.60;1.40;;;;;;;-147.86;100.00;48390.96;105539;1258;60294;-50
2023/11/07 03:10:09;;;;;;;2.70;1.00;;;;;;;-147.86;100.00;48372.53;105653;1260;72975;-48
2023/11/07 03:12:36;;;;;;;1.40;0.90;;;;;;;-147.86;100.00;48369.39;105603;1260;64759;-45
2023/11/07 03:15:04;;;;;;;2.60;1.30;;;;;;;-147.86;100.00;48377.62;105548;1262;72700;-46
2023/11/07 03:17:31;;;;;;;4.10;1.00;;;;;;;-147.86;100.00;48379.20;105617;1260;60775;-49
2023/11/07 03:19:58;;;;;;;1.80;0.90;;;;;;;-147.86;100.00;48358.41;105589;1256;60300;-50
2023/11/07 03:22:26;;;;;;;2.10;0.70;;;;;;;-147.86;100.00;48390.17;105602;1260;72796;-46
2023/11/07 03:24:54;;;;;;;1.90;1.00;;;;;;;-147.86;100.00;48376.05;105648;1260;64685;-52
2023/11/07 03:27:21;;;;;;;3.70;1.00;;;;;;;-147.86;100.00;48400.76;105601;1258;72870;-47
2023/11/07 03:29:48;;;;;;;4.10;1.40;;;;;;;-147.86;100.00;48411.74;105622;1260;59616;-49
2023/11/07 03:32:15;;;;;;;1.80;1.60;;;;;;;-147.86;100.00;48419.97;105679;1257;60544;-47
2023/11/07 03:34:42;;;;;;;5.20;1.30;;;;;;;-147.86;100.00;48429.38;105613;1257;71884;-48
2023/11/07 03:37:09;;;;;;;1.00;0.90;;;;;;;-147.86;100.00;48416.05;105554;1263;64548;-52
2023/11/07 03:39:36;;;;;;;1.90;1.20;;;;;;;-147.86;100.00;48420.75;105609;1269;72615;-47
2023/11/07 03:42:04;;;;;;;1.00;0.90;;;;;;;-147.86;100.00;48410.56;105628;1260;60228;-48
2023/11/07 03:44:33;;;;;;;1.10;1.10;;;;;;;-147.86;100.00;48397.63;105658;1258;60421;-49
2023/11/07 03:47:00;;;;;;;1.10;1.00;;;;;;;-147.86;100.00;48401.54;105663;1260;73110;-48
2023/11/07 03:49:27;;;;;;;4.00;0.90;;;;;;;-147.86;100.00;48391.74;105622;1260;64570;-49
2023/11/07 03:51:54;;;;;;;4.80;1.30;;;;;;;-147.86;100.00;48387.82;105625;1257;72564;-50
2023/11/07 03:54:23;;;;;;;1.20;0.90;;;;;;;-147.86;100.00;48388.99;105674;1259;60425;-51
2023/11/07 03:56:50;;;;;;;1.20;1.00;;;;;;;-147.86;100.00;48409.38;105637;1257;60183;-50
2023/11/07 03:59:18;;;;;;;3.50;1.10;;;;;;;-147.86;100.00;48442.32;105635;1257;72969;-47
2023/11/07 04:01:44;;;;;;;4.60;1.00;;;;;;;-147.86;100.00;48454.09;105660;1260;64588;-46
2023/11/07 04:04:11;;;;;;;3.50;1.00;;;;;;;-147.86;100.00;48478.79;105674;1257;72557;-49
2023/11/07 04:06:39;;;;;;;1.80;1.00;;;;;;;-147.86;100.00;48493.29;105642;1260;60236;-49
2023/11/07 04:09:05;;;;;;;3.30;1.20;;;;;;;-147.86;100.00;48496.43;105606;1260;60309;-50
2023/11/07 04:11:32;;;;;;;7.20;1.60;;;;;;;-147.86;100.00;48518.38;105625;1260;73001;-48
2023/11/07 04:14:00;;;;;;;2.00;1.30;;;;;;;-147.86;100.00;48512.51;105624;1261;64772;-49
2023/11/07 04:16:27;;;;;;;7.00;1.50;;;;;;;-147.86;100.00;48497.61;105571;1260;72679;-49
2023/11/07 04:18:53;;;;;;;1.90;1.30;;;;;;;-147.86;100.00;48480.35;105599;1262;60265;-45
2023/11/07 04:21:21;;;;;;;6.20;1.40;;;;;;;-147.86;100.00;48479.96;105601;1257;60424;-48
2023/11/07 04:23:49;;;;;;;2.40;1.50;;;;;;;-147.86;100.00;48451.34;105594;1258;72767;-48
2023/11/07 04:26:17;;;;;;;2.00;1.40;;;;;;;-147.86;100.00;48448.99;105604;1263;64897;-49
2023/11/07 04:28:44;;;;;;;3.40;1.20;;;;;;;-147.86;100.00;48462.32;105601;1260;71546;-46
2023/11/07 04:31:12;;;;;;;2.10;1.50;;;;;;;-147.86;100.00;48443.50;105609;1262;60376;-50
2023/11/07 04:33:39;;;;;;;4.00;1.50;;;;;;;-147.86;100.00;48433.70;105674;1262;60298;-46
2023/11/07 04:36:08;;;;;;;2.80;1.50;;;;;;;-147.86;100.00;48425.85;105636;1257;73052;-48
2023/11/07 04:38:35;;;;;;;1.50;1.40;;;;;;;-147.86;100.00;48412.52;105625;1262;65312;-47
2023/11/07 04:41:02;;;;;;;2.20;1.50;;;;;;;-147.86;100.00;48419.97;105574;1261;72487;-48
2023/11/07 04:43:35;;;;;;;2.40;1.60;;;;;;;-147.86;100.00;48412.91;105590;1262;60322;-49
2023/11/07 04:46:03;;;;;;;2.40;1.40;;;;;;;-147.86;100.00;48419.18;105611;1263;60272;-45
2023/11/07 04:48:32;;;;;;;3.10;1.70;;;;;;;-147.86;100.00;48432.13;105596;1263;73083;-49
2023/11/07 04:50:59;;;;;;;2.20;1.80;;;;;;;-147.86;100.00;48412.13;105572;1262;65517;-48
2023/11/07 04:53:29;;;;;;;2.30;1.60;;;;;;;-147.86;100.00;48428.99;105646;1262;72589;-47
2023/11/07 04:55:56;;;;;;;3.80;1.70;;;;;;;-147.86;100.00;48436.83;105611;1263;60161;-49
2023/11/07 04:58:24;;;;;;;7.00;2.00;;;;;;;-147.86;100.00;48423.11;105627;1258;60380;-49
2023/11/07 05:00:53;;;;;;;4.20;1.60;;;;;;;-147.86;100.00;48414.09;105862;1257;71151;-48
2023/11/07 05:03:21;;;;;;;1.70;1.60;;;;;;;-147.86;100.00;48416.45;105848;1254;65637;-51
2023/11/07 05:05:59;;;;;;;2.10;1.40;;;;;;;-147.86;100.00;48415.27;105905;1259;72687;-47
2023/11/07 05:08:27;;;;;;;2.20;1.70;;;;;;;-147.86;100.00;48418.01;105888;1257;60353;-46
2023/11/07 05:10:54;;;;;;;7.60;1.70;;;;;;;-147.86;100.00;48423.89;105866;1259;60153;-48
2023/11/07 05:13:21;;;;;;;3.60;1.70;;;;;;;-147.86;100.00;48429.77;105877;1257;72986;-49
2023/11/07 05:15:48;;;;;;;7.50;2.00;;;;;;;-147.86;100.00;48407.03;105819;1260;64633;-50
2023/11/07 05:18:15;;;;;;;3.00;1.20;;;;;;;-147.86;100.00;48409.78;105840;1257;72586;-46
2023/11/07 05:20:42;;;;;;;6.50;2.00;;;;;;;-147.86;100.00;48414.88;105859;1257;60243;-49
2023/11/07 05:23:09;;;;;;;3.50;1.60;;;;;;;-147.86;100.00;48408.99;105869;1257;60320;-49
2023/11/07 05:25:36;;;;;;;3.50;2.10;;;;;;;-147.86;100.00;48400.76;105864;1254;72860;-48
2023/11/07 05:28:04;;;;;;;7.60;2.00;;;;;;;-147.86;100.00;48413.30;105551;1260;64614;-50
2023/11/07 05:30:32;;;;;;;5.70;1.70;;;;;;;-147.86;100.00;48415.26;105652;1259;72666;-52
2023/11/07 05:32:58;;;;;;;6.30;2.30;;;;;;;-147.86;100.00;48418.01;105907;1260;60358;-51
2023/11/07 05:35:25;;;;;;;2.80;1.80;;;;;;;-147.86;100.00;48412.13;105856;1254;60314;-48
2023/11/07 05:37:54;;;;;;;1.60;1.50;;;;;;;-147.86;100.00;48395.27;105842;1253;71845;-47
2023/11/07 05:40:23;;;;;;;8.50;1.80;;;;;;;-147.86;100.00;48413.30;105823;1258;63601;-48
2023/11/07 05:42:52;;;;;;;3.30;1.80;;;;;;;-147.86;100.00;48397.23;105851;1259;72485;-47
2023/11/07 05:45:19;;;;;;;5.80;1.50;;;;;;;-147.86;100.00;48393.70;105863;1260;60447;-48
2023/11/07 05:47:46;;;;;;;5.10;1.60;;;;;;;-147.86;100.00;48387.03;105918;1254;60418;-48
2023/11/07 05:50:13;;;;;;;8.50;1.90;;;;;;;-147.86;100.00;48381.16;105802;1255;73760;-48
2023/11/07 05:52:40;;;;;;;5.10;1.80;;;;;;;-147.86;100.00;48380.76;105809;1254;65482;-46
2023/11/07 05:55:08;;;;;;;5.90;1.70;;;;;;;-147.86;100.00;48380.37;105776;1258;71642;-46
2023/11/07 05:57:35;;;;;;;2.10;1.70;;;;;;;-147.86;100.00;48369.78;105716;1254;60499;-48
2023/11/07 06:00:06;;;;;;;1.80;1.60;;;;;;;-147.86;100.00;48394.09;105615;1254;60454;-48
2023/11/07 06:02:38;;;;;;;7.60;1.80;;;;;;;-147.86;100.00;48374.88;105642;1257;73944;-47
2023/11/07 06:05:06;;;;;;;3.40;1.90;;;;;;;-147.86;100.00;48377.23;105812;1254;65504;-49
2023/11/07 06:07:34;;;;;;;5.50;1.40;;;;;;;-147.86;100.00;48363.12;105914;1256;72725;-52
2023/11/07 06:10:01;;;;;;;2.00;1.70;;;;;;;-147.86;100.00;48360.38;105916;1266;60370;-52
2023/11/07 06:12:28;;;;;;;7.00;1.50;;;;;;;-147.86;100.00;48354.88;105929;1257;60501;-52
2023/11/07 06:14:55;;;;;;;1.80;1.50;;;;;;;-147.86;100.00;48360.76;105922;1257;74070;-49
2023/11/07 06:17:22;;;;;;;2.00;1.40;;;;;;;-147.86;100.00;48359.59;105805;1254;66049;-46
2023/11/07 06:19:49;;;;;;;10.30;1.70;;;;;;;-147.86;100.00;48356.84;105858;1257;72652;-47
2023/11/07 06:22:16;;;;;;;6.60;1.70;;;;;;;-147.86;100.00;48341.16;105888;1257;60438;-50
2023/11/07 06:24:45;;;;;;;3.60;1.70;;;;;;;-147.86;100.00;48359.20;105868;1260;60408;-47
2023/11/07 06:27:12;;;;;;;4.30;1.90;;;;;;;-147.86;100.00;48331.75;105842;1257;72851;-47
2023/11/07 06:29:42;;;;;;;13.10;2.40;;;;;;;-147.86;100.00;48333.71;105822;1256;64319;-48
2023/11/07 06:32:09;;;;;;;3.00;1.90;;;;;;;-147.86;100.00;48333.71;105852;1254;73562;-47
2023/11/07 06:34:37;;;;;;;2.40;1.40;;;;;;;-147.86;100.00;48344.69;105896;1254;61997;-49
2023/11/07 06:37:04;;;;;;;4.90;1.80;;;;;;;-147.86;100.00;48322.34;105828;1254;60456;-50
2023/11/07 06:39:31;;;;;;;8.80;1.80;;;;;;;-147.86;100.00;48336.06;105822;1257;73826;-47
2023/11/07 06:41:58;;;;;;;11.90;2.30;;;;;;;-147.86;100.00;48316.46;105886;1254;65558;-49
2023/11/07 06:44:26;;;;;;;5.10;1.70;;;;;;;-147.86;100.00;48328.22;105816;1255;72683;-48
2023/11/07 06:46:53;;;;;;;3.00;1.40;;;;;;;-147.86;100.00;48321.16;105850;1254;60695;-47
2023/11/07 06:49:20;;;;;;;2.50;1.70;;;;;;;-147.86;100.00;48317.64;105857;1254;60613;-50
2023/11/07 06:51:47;;;;;;;3.20;1.50;;;;;;;-147.86;100.00;48310.58;105878;1261;73780;-51
2023/11/07 06:54:15;;;;;;;5.90;1.40;;;;;;;-147.86;100.00;48325.87;105863;1258;65455;-46
2023/11/07 06:56:44;;;;;;;4.10;1.80;;;;;;;-147.86;100.00;48316.85;105839;1257;72473;-49
2023/11/07 06:59:11;;;;;;;5.80;2.10;;;;;;;-147.86;100.00;48318.42;105888;1258;60933;-50
2023/11/07 07:01:39;;;;;;;5.60;1.90;;;;;;;-147.86;100.00;48321.95;105841;1257;60344;-52
2023/11/07 07:04:06;;;;;;;3.40;2.10;;;;;;;-147.86;100.00;48316.46;105855;1257;74700;-49
2023/11/07 07:06:35;;;;;;;3.60;1.60;;;;;;;-147.86;100.00;48316.85;105907;1258;64655;-49
2023/11/07 07:09:04;;;;;;;5.30;2.00;;;;;;;-147.86;100.00;48308.23;105873;1258;72508;-47
2023/11/07 07:11:32;;;;;;;1.90;1.80;;;;;;;-147.86;100.00;48319.59;105730;1260;60530;-50
2023/11/07 07:13:59;;;;;;;28.40;3.40;;;;;;;-147.86;100.00;48300.39;105833;1254;60556;-48
2023/11/07 07:16:30;;;;;;;49.90;4.10;;;;;;;-147.86;100.00;48294.89;105857;1254;73843;-47
2023/11/07 07:18:57;;;;;;;17.80;2.50;;;;;;;-147.86;100.00;48306.66;105823;1257;64576;-47
2023/11/07 07:21:25;;;;;;;18.70;2.70;;;;;;;-147.86;100.00;48296.46;105824;1254;72675;-46
2023/11/07 07:23:52;;;;;;;5.40;2.10;;;;;;;-147.86;100.00;48302.35;105891;1256;60335;-50
2023/11/07 07:26:20;;;;;;;6.40;2.30;;;;;;;-147.86;100.00;48303.91;105865;1254;60479;-52
2023/11/07 07:28:51;;;;;;;50.70;4.50;;;;;;;-147.86;100.00;48297.64;105917;1257;73752;-49
2023/11/07 07:31:27;;;;;;;47.60;4.50;;;;;;;-147.86;100.00;48294.50;105895;1256;65625;-47
2023/11/07 07:33:56;;;;;;;36.00;3.70;;;;;;;-147.86;100.00;48305.88;105818;1258;72705;-47
2023/11/07 07:36:23;;;;;;;6.60;1.40;;;;;;;-147.86;100.00;48301.95;105721;1253;61943;-50
2023/11/07 07:38:52;;;;;;;38.70;4.60;;;;;;;-147.86;100.00;48290.58;105736;1254;60531;-46
2023/11/07 07:41:22;;;;;;;53.60;6.10;;;;;;;-147.86;100.00;48281.56;105674;1258;73703;-48
2023/11/07 07:43:49;;;;;;;35.30;3.40;;;;;;;-147.86;100.00;48301.95;105805;1257;65900;-49
2023/11/07 07:46:17;;;;;;;27.70;3.00;;;;;;;-147.86;100.00;48303.13;105577;1255;72799;-47
2023/11/07 07:48:45;;;;;;;10.10;2.00;;;;;;;-147.86;100.00;48278.04;105635;1257;60370;-50
2023/11/07 07:51:13;;;;;;;11.10;2.20;;;;;;;-147.86;100.00;48279.21;105722;1254;60530;-53
2023/11/07 07:53:41;;;;;;;2.60;1.50;;;;;;;-147.86;100.00;48300.77;105721;1257;74566;-49
2023/11/07 07:56:13;;;;;;;24.80;4.30;;;;;;;-147.86;100.00;48287.84;105666;1259;64550;-46
2023/11/07 07:58:43;;;;;;;56.10;5.10;;;;;;;-147.86;100.00;48286.27;105614;1261;72752;-49
2023/11/07 08:01:10;;;;;;;60.20;5.60;;;;;;;-147.86;100.00;48278.43;105792;1257;62014;-49
2023/11/07 08:03:38;;;;;;;7.90;1.70;;;;;;;-147.86;100.00;48279.99;105649;1254;60457;-49
2023/11/07 08:06:06;;;;;;;26.30;2.80;;;;;;;-147.86;100.00;48276.86;105628;1260;73796;-48
2023/11/07 08:08:34;;;;;;;24.40;3.00;;;;;;;-147.86;100.00;48278.04;105723;1257;65858;-48
2023/11/07 08:11:01;;;;;;;26.40;3.10;;;;;;;-147.86;100.00;48275.68;105636;1256;73080;-49
2023/11/07 08:13:29;;;;;;;2.70;1.60;;;;;;;-147.86;100.00;48265.49;105623;1259;61463;-51
2023/11/07 08:15:56;;;;;;;2.50;1.40;;;;;;;-147.86;100.00;48274.11;105662;1255;60425;-51
2023/11/07 08:18:23;;;;;;;14.70;2.60;;;;;;;-147.86;100.00;48272.55;105636;1261;73911;-50
2023/11/07 08:20:50;;;;;;;5.70;2.40;;;;;;;-147.86;100.00;48283.92;105625;1259;65333;-50
2023/11/07 08:23:18;;;;;;;46.70;3.70;;;;;;;-147.86;96.94;48274.11;105610;1255;73322;-46
2023/11/07 08:25:45;;;;;;;3.80;1.80;;;;;;;-147.86;95.85;48280.00;105619;1258;61347;-49
2023/11/07 08:28:12;;;;;;;6.40;1.50;;;;;;;-147.86;86.17;48263.92;105674;1254;60449;-49
2023/11/07 08:30:43;;;;;;;8.60;1.70;;;;;;;-147.86;88.35;48270.59;105689;1260;73553;-50
2023/11/07 08:33:12;;;;;;;13.40;1.70;;;;;;;-147.86;83.29;48280.39;105719;1260;66156;-47
2023/11/07 08:35:40;;;;;;;1.30;1.10;;;;;;;-147.86;83.00;48274.51;105711;1254;72878;-49
2023/11/07 08:38:07;;;;;;;7.50;1.70;;;;;;;-147.86;79.77;48273.73;105667;1259;60366;-50
2023/11/07 08:40:34;;;;;;;6.80;1.70;;;;;;;-147.86;81.43;48280.39;105633;1254;61310;-49
2023/11/07 08:43:01;;;;;;;7.90;1.40;;;;;;;-147.86;74.33;48267.84;105607;1254;74791;-49
2023/11/07 08:45:29;;;;;;;3.50;1.60;;;;;;;-147.86;75.35;48278.04;105683;1259;66017;-47
2023/11/07 08:47:56;;;;;;;40.60;3.30;;;;;;;-147.86;77.15;48274.11;105636;1254;72487;-47
2023/11/07 08:50:25;;;;;;;31.00;2.50;;;;;;;-147.86;76.90;48267.84;105676;1259;60526;-49
2023/11/07 08:52:53;;;;;;;4.40;1.60;;;;;;;-147.86;75.80;48278.04;105668;1255;60610;-48
2023/11/07 08:55:20;;;;;;;15.20;2.10;;;;;;;-147.86;75.84;48269.41;105700;1259;73980;-50
2023/11/07 08:57:48;;;;;;;5.80;2.00;;;;;;;-147.86;79.08;48288.23;105700;1259;65974;-48
2023/11/07 09:00:21;;;;;;;6.50;1.60;;;;;;;-147.86;74.40;48283.92;105676;1260;71794;-49
2023/11/07 09:02:49;;;;;;;2.00;1.80;;;;;;;-147.86;70.78;48269.80;105608;1260;60679;-49
2023/11/07 09:05:19;;;;;;;7.50;2.30;;;;;;;-147.86;71.69;48271.37;105676;1254;60674;-48
2023/11/07 09:07:46;;;;;;;5.80;1.60;;;;;;;-147.86;71.13;48274.90;105675;1254;73982;-50
2023/11/07 09:10:13;;;;;;;6.60;1.60;;;;;;;-147.86;67.54;48276.07;105648;1259;64292;-50
2023/11/07 09:12:41;;;;;;;3.80;1.90;;;;;;;-147.86;66.70;48270.59;105645;1255;71791;-50
2023/11/07 09:15:10;;;;;;;5.40;1.50;;;;;;;-147.86;66.99;48279.21;105647;1256;60535;-51
2023/11/07 09:17:41;;;;;;;4.50;1.90;;;;;;;-147.86;67.06;48279.21;105679;1259;60501;-49
2023/11/07 09:20:11;;;;;;;6.10;2.00;;;;;;;-147.86;67.75;48280.00;105656;1259;74213;-53
2023/11/07 09:22:39;;;;;;;4.10;1.40;;;;;;;-147.86;66.19;48274.12;105632;1257;66415;-43
2023/11/07 09:25:08;;;;;;;4.40;1.70;;;;;;;-147.86;65.05;48297.64;105615;1254;73480;-45
2023/11/07 09:27:39;;;;;;;11.10;1.60;;;;;;;-147.86;62.75;48274.11;105638;1260;61994;-49
2023/11/07 09:30:09;;;;;;;19.20;2.30;;;;;;;-147.86;61.00;48269.80;105688;1260;60420;-49
2023/11/07 09:32:37;;;;;;;27.30;3.00;;;;;;;-147.86;61.39;48287.05;105664;1254;74198;-51
2023/11/07 09:35:05;;;;;;;12.20;1.60;;;;;;;-147.86;61.19;48283.52;105629;1259;65542;-51
2023/11/07 09:37:36;;;;;;;3.30;1.70;;;;;;;-147.86;60.66;48287.84;105631;1254;73676;-49
2023/11/07 09:40:09;;;;;;;3.60;1.50;;;;;;;-147.86;59.31;48265.49;105647;1255;61893;-47
2023/11/07 09:42:44;;;;;;;3.60;1.70;;;;;;;-147.86;59.90;48267.45;105601;1255;61292;-49
2023/11/07 09:45:16;;;;;;;2.30;1.10;;;;;;;-147.86;59.55;48271.76;105619;1257;74581;-47
2023/11/07 09:47:47;;;;;;;4.30;1.60;;;;;;;-147.86;58.16;48264.71;105641;1261;65947;-47
2023/11/07 09:50:22;;;;;;;1.60;1.10;;;;;;;-147.86;57.36;48285.09;105701;1259;73004;-50
2023/11/07 09:52:50;;;;;;;9.20;1.60;;;;;;;-147.86;57.69;48277.25;105620;1259;61209;-47
2023/11/07 09:55:17;;;;;;;2.40;1.60;;;;;;;-147.86;56.38;48278.82;105662;1254;61701;-48
2023/11/07 09:58:01;;;;;;;2.70;1.20;;;;;;;-147.86;55.72;48270.58;105679;1254;73145;-45
2023/11/07 10:00:43;;;;;;;0.90;0.80;;;;;;;-147.86;54.41;48261.96;105734;1257;65703;-51
2023/11/07 10:03:10;;;;;;;1.70;1.20;;;;;;;-147.86;53.40;48277.64;105689;1254;72842;-51
2023/11/07 10:05:38;;;;;;;1.30;1.00;;;;;;;-147.86;53.49;48272.54;105619;1259;60765;-46
2023/11/07 10:08:06;;;;;;;2.40;1.00;;;;;;;-147.86;53.77;48283.52;105680;1254;60615;-48
2023/11/07 10:10:34;;;;;;;3.50;1.10;;;;;;;-147.86;53.65;48256.86;105715;1254;74333;-48
2023/11/07 10:13:08;;;;;;;6.00;1.30;;;;;;;-147.86;53.67;48275.68;105714;1257;65818;-51
2023/11/07 10:15:36;;;;;;;2.50;1.20;;;;;;;-147.86;53.45;48280.78;105738;1254;72231;-47
2023/11/07 10:18:04;;;;;;;2.20;1.30;;;;;;;-147.86;53.93;48263.53;105638;1259;60741;-49
2023/11/07 10:20:33;;;;;;;9.30;1.50;;;;;;;-147.86;53.52;48272.16;105702;1259;60457;-48
2023/11/07 10:23:00;;;;;;;1.70;1.20;;;;;;;-147.86;54.00;48278.82;105602;1260;73242;-49
2023/11/07 10:25:34;;;;;;;4.50;1.30;;;;;;;-147.86;53.68;48287.84;105650;1255;63606;-45
2023/11/07 10:28:06;;;;;;;2.90;1.20;;;;;;;-147.86;53.84;48270.98;105661;1260;72396;-49
2023/11/07 10:30:47;;;;;;;4.00;1.10;;;;;;;-147.86;53.63;48276.08;105673;1259;60428;-49
2023/11/07 10:33:24;;;;;;;1.50;1.20;;;;;;;-147.86;52.81;48274.51;105635;1254;60448;-48
2023/11/07 10:35:56;;;;;;;2.60;1.60;;;;;;;-147.86;52.78;48273.33;105649;1254;73353;-53
2023/11/07 10:38:23;;;;;;;16.40;1.90;;;;;;;-147.86;53.19;48290.98;105651;1259;63983;-48
2023/11/07 10:40:50;;;;;;;9.30;2.60;;;;;;;-147.86;52.82;48287.05;105869;1259;73520;-46
2023/11/07 10:43:37;;;;;;;6.30;1.70;;;;;;;-147.86;52.83;48274.50;105711;1257;60756;-48
2023/11/07 10:46:11;;;;;;;2.50;1.40;;;;;;;-147.86;52.49;48275.29;105688;1257;60434;-44
2023/11/07 10:48:40;;;;;;;8.40;1.40;;;;;;;-147.86;52.93;48255.29;105670;1254;74749;-46
2023/11/07 10:51:12;;;;;;;1.40;1.30;;;;;;;-147.86;52.50;48281.56;105741;1254;64110;-49
2023/11/07 10:53:41;;;;;;;13.50;1.70;;;;;;;-147.86;52.84;48281.57;105657;1257;73484;-49
2023/11/07 10:56:18;;;;;;;3.10;1.40;;;;;;;-147.86;53.14;48279.60;105674;1257;60421;-47
2023/11/07 10:59:00;;;;;;;2.20;1.30;;;;;;;-147.86;52.21;48278.82;105685;1258;59800;-49
2023/11/07 11:01:34;;;;;;;4.80;1.50;;;;;;;-147.86;51.67;48281.57;105578;1258;74813;-50
2023/11/07 11:04:01;;;;;;;7.20;1.80;;;;;;;-147.86;52.38;48259.22;105651;1257;64665;-53
2023/11/07 11:06:31;;;;;;;6.80;1.40;;;;;;;-147.86;51.64;48282.74;105694;1257;71200;-50
2023/11/07 11:09:10;;;;;;;5.70;1.50;;;;;;;-147.86;52.07;48272.15;105697;1254;61262;-48